createdAt,value
2018-07-04T00:02:24.785Z,17.09
2018-07-04T00:05:04.386Z,17.07
2018-07-04T00:07:43.852Z,16.97
2018-07-04T00:10:23.225Z,16.93
2018-07-04T00:13:02.927Z,16.87
2018-07-04T00:15:42.429Z,16.72
2018-07-04T00:18:22.025Z,16.57
2018-07-04T00:21:01.501Z,16.60
2018-07-04T00:23:40.941Z,16.64
2018-07-04T00:26:20.432Z,16.52
2018-07-04T00:28:59.979Z,16.44
2018-07-04T00:31:39.572Z,16.41
2018-07-04T00:34:19.107Z,16.44
2018-07-04T00:36:58.732Z,16.39
2018-07-04T00:39:38.357Z,16.36
2018-07-04T00:42:17.783Z,16.31
2018-07-04T00:44:57.372Z,16.14
2018-07-04T00:47:36.869Z,16.13
2018-07-04T00:50:16.512Z,16.12
2018-07-04T00:52:56.116Z,16.06
2018-07-04T00:55:35.661Z,16.08
2018-07-04T00:58:15.124Z,16.07
2018-07-04T01:00:54.576Z,16.03
2018-07-04T01:03:34.060Z,15.98
2018-07-04T01:06:13.680Z,15.90
2018-07-04T01:08:53.161Z,15.83
2018-07-04T01:11:32.781Z,15.80
2018-07-04T01:14:12.300Z,15.78
2018-07-04T01:16:51.876Z,15.59
2018-07-04T01:19:31.519Z,15.52
2018-07-04T01:22:10.980Z,15.46
2018-07-04T01:24:50.369Z,15.47
2018-07-04T01:27:29.787Z,15.50
2018-07-04T01:30:09.333Z,15.45
2018-07-04T01:32:49.021Z,15.40
2018-07-04T01:35:28.645Z,15.36
2018-07-04T01:38:08.245Z,15.32
2018-07-04T01:40:47.840Z,15.27
2018-07-04T01:43:27.532Z,15.13
2018-07-04T01:46:06.988Z,15.15
2018-07-04T01:48:46.484Z,14.99
2018-07-04T01:51:26.099Z,14.90
2018-07-04T01:54:05.696Z,14.83
2018-07-04T01:56:45.196Z,14.85
2018-07-04T01:59:24.783Z,14.82
2018-07-04T02:02:04.452Z,14.80
2018-07-04T02:04:43.913Z,14.69
2018-07-04T02:07:23.507Z,14.59
2018-07-04T02:10:03.131Z,14.59
2018-07-04T02:12:42.748Z,14.47
2018-07-04T02:15:22.161Z,14.45
2018-07-04T02:18:01.781Z,14.41
2018-07-04T02:20:41.423Z,14.46
2018-07-04T02:23:21.065Z,14.39
2018-07-04T02:26:00.636Z,14.40
2018-07-04T02:28:40.244Z,14.39
2018-07-04T02:31:19.752Z,14.37
2018-07-04T02:33:59.349Z,14.33
2018-07-04T02:36:38.960Z,14.08
2018-07-04T02:39:18.476Z,13.98
2018-07-04T02:41:58.133Z,13.84
2018-07-04T02:44:37.849Z,13.92
2018-07-04T02:47:23.031Z,14.01
2018-07-04T02:50:02.640Z,14.03
2018-07-04T02:52:42.317Z,14.12
2018-07-04T02:55:21.938Z,13.74
2018-07-04T02:58:01.549Z,13.59
2018-07-04T03:00:41.081Z,13.51
2018-07-04T03:03:20.662Z,13.64
2018-07-04T03:06:00.333Z,13.81
2018-07-04T03:08:39.744Z,13.90
2018-07-04T03:11:19.395Z,13.99
2018-07-04T03:13:59.045Z,13.95
2018-07-04T03:16:38.626Z,13.99
2018-07-04T03:19:18.207Z,13.94
2018-07-04T03:21:57.789Z,14.03
2018-07-04T03:24:37.172Z,14.09
2018-07-04T03:27:16.569Z,14.18
2018-07-04T03:29:56.104Z,14.21
2018-07-04T03:32:35.683Z,14.24
2018-07-04T03:35:15.256Z,14.33
2018-07-04T03:37:54.792Z,14.31
2018-07-04T03:40:34.412Z,14.30
2018-07-04T03:43:14.107Z,14.36
2018-07-04T03:45:53.575Z,14.29
2018-07-04T03:48:33.184Z,13.95
2018-07-04T03:51:12.929Z,13.86
2018-07-04T03:53:52.575Z,14.00
2018-07-04T03:56:32.082Z,13.99
2018-07-04T03:59:11.617Z,14.03
2018-07-04T04:01:50.867Z,13.91
2018-07-04T04:04:30.373Z,14.02
2018-07-04T04:07:09.792Z,14.13
2018-07-04T04:09:49.470Z,14.16
2018-07-04T04:12:29.156Z,14.10
2018-07-04T04:15:08.704Z,14.14
2018-07-04T04:17:48.320Z,14.09
2018-07-04T04:20:27.858Z,14.34
2018-07-04T04:23:07.380Z,14.35
2018-07-04T04:25:47.798Z,14.62
2018-07-04T04:28:27.204Z,14.77
2018-07-04T04:31:06.600Z,14.83
2018-07-04T04:33:46.259Z,14.96
2018-07-04T04:36:25.935Z,15.13
2018-07-04T04:39:05.526Z,15.04
2018-07-04T04:41:45.156Z,15.27
2018-07-04T04:44:24.718Z,15.22
2018-07-04T04:47:04.221Z,15.38
2018-07-04T04:49:43.592Z,15.32
2018-07-04T04:52:23.170Z,15.30
2018-07-04T04:55:02.802Z,15.29
2018-07-04T04:57:42.425Z,15.27
2018-07-04T05:00:21.982Z,15.41
2018-07-04T05:03:01.713Z,15.15
2018-07-04T05:05:41.116Z,15.30
2018-07-04T05:08:20.739Z,15.31
2018-07-04T05:11:00.131Z,15.52
2018-07-04T05:13:39.813Z,15.70
2018-07-04T05:16:19.507Z,15.57
2018-07-04T05:18:59.044Z,16.24
2018-07-04T05:21:38.644Z,18.02
2018-07-04T05:24:18.212Z,19.63
2018-07-04T05:26:57.715Z,21.13
2018-07-04T05:29:37.328Z,22.06
2018-07-04T05:32:16.708Z,22.90
2018-07-04T05:34:56.348Z,23.82
2018-07-04T05:37:35.760Z,24.46
2018-07-04T05:40:15.312Z,24.90
2018-07-04T05:42:54.873Z,25.38
2018-07-04T05:45:34.630Z,25.89
2018-07-04T05:48:14.170Z,26.63
2018-07-04T05:50:53.825Z,26.44
2018-07-04T05:53:33.255Z,26.70
2018-07-04T05:56:12.851Z,27.72
2018-07-04T05:58:52.581Z,28.26
2018-07-04T06:01:32.198Z,28.79
2018-07-04T06:04:11.590Z,29.31
2018-07-04T06:06:51.037Z,30.40
2018-07-04T06:09:30.569Z,31.68
2018-07-04T06:12:10.244Z,31.78
2018-07-04T06:14:49.824Z,32.18
2018-07-04T06:17:29.385Z,32.33
2018-07-04T06:20:09.277Z,33.18
2018-07-04T06:22:48.887Z,32.56
2018-07-04T06:25:28.431Z,32.46
2018-07-04T06:28:08.088Z,31.44
2018-07-04T06:30:47.576Z,31.85
2018-07-04T06:33:27.068Z,32.23
2018-07-04T06:36:06.710Z,32.96
2018-07-04T06:38:33.741Z,33.53
2018-07-04T06:41:00.809Z,34.05
2018-07-04T06:43:27.896Z,34.22
2018-07-04T06:45:54.929Z,34.43
2018-07-04T06:48:21.963Z,34.78
2018-07-04T06:50:49.091Z,34.60
2018-07-04T06:53:16.116Z,35.18
2018-07-04T06:55:43.185Z,35.97
2018-07-04T06:58:10.233Z,36.22
2018-07-04T07:00:37.301Z,36.40
2018-07-04T07:03:16.678Z,37.10
2018-07-04T07:05:56.101Z,37.67
2018-07-04T07:08:35.688Z,38.03
2018-07-04T07:11:15.272Z,38.56
2018-07-04T07:13:54.808Z,38.08
2018-07-04T07:16:34.372Z,38.40
2018-07-04T07:19:13.929Z,38.89
2018-07-04T07:21:53.473Z,38.20
2018-07-04T07:24:32.911Z,38.76
2018-07-04T07:27:12.571Z,38.65
2018-07-04T07:29:52.124Z,38.39
2018-07-04T07:32:31.590Z,38.28
2018-07-04T07:35:11.267Z,37.70
2018-07-04T07:37:50.804Z,36.51
2018-07-04T07:40:30.368Z,36.35
2018-07-04T07:43:09.890Z,35.61
2018-07-04T07:45:49.417Z,35.40
2018-07-04T07:48:28.908Z,35.35
2018-07-04T07:51:08.441Z,35.17
2018-07-04T07:53:48.116Z,35.78
2018-07-04T07:56:27.772Z,35.21
2018-07-04T07:59:07.297Z,35.25
2018-07-04T08:01:46.781Z,34.82
2018-07-04T08:04:26.298Z,35.08
2018-07-04T08:07:05.928Z,35.16
2018-07-04T08:09:45.472Z,35.15
2018-07-04T08:12:25.158Z,33.86
2018-07-04T08:15:04.733Z,33.49
2018-07-04T08:17:44.485Z,33.78
2018-07-04T08:20:23.959Z,34.13
2018-07-04T08:23:03.541Z,33.58
2018-07-04T08:25:42.980Z,32.86
2018-07-04T08:28:22.452Z,32.49
2018-07-04T08:31:02.001Z,32.59
2018-07-04T08:33:42.552Z,32.68
2018-07-04T08:36:22.258Z,32.94
2018-07-04T08:39:01.746Z,33.26
2018-07-04T08:41:41.032Z,33.59
2018-07-04T08:44:20.593Z,33.25
2018-07-04T08:47:00.145Z,33.05
2018-07-04T08:49:39.812Z,32.93
2018-07-04T08:52:19.332Z,33.22
2018-07-04T08:54:58.837Z,33.31
2018-07-04T08:57:38.342Z,33.36
2018-07-04T09:00:17.984Z,32.99
2018-07-04T09:02:57.516Z,32.48
2018-07-04T09:05:36.943Z,31.19
2018-07-04T09:08:16.420Z,30.31
2018-07-04T09:10:56.093Z,30.53
2018-07-04T09:13:35.717Z,30.92
2018-07-04T09:16:15.157Z,30.76
2018-07-04T09:18:54.677Z,30.53
2018-07-04T09:21:34.204Z,30.47
2018-07-04T09:24:13.745Z,30.11
2018-07-04T09:26:53.204Z,30.55
2018-07-04T09:29:32.801Z,30.53
2018-07-04T09:32:12.267Z,29.92
2018-07-04T09:34:51.969Z,30.20
2018-07-04T09:37:31.555Z,30.69
2018-07-04T09:40:11.141Z,31.20
2018-07-04T09:42:50.760Z,31.48
2018-07-04T09:45:30.325Z,31.66
2018-07-04T09:48:09.869Z,31.03
2018-07-04T09:50:49.513Z,30.86
2018-07-04T09:53:29.057Z,30.83
2018-07-04T09:56:08.705Z,30.72
2018-07-04T09:58:48.284Z,30.30
2018-07-04T10:01:27.575Z,29.79
2018-07-04T10:04:07.221Z,29.53
2018-07-04T10:06:46.854Z,29.81
2018-07-04T10:09:26.502Z,30.52
2018-07-04T10:12:06.043Z,31.09
2018-07-04T10:14:45.639Z,30.85
2018-07-04T10:17:25.248Z,31.17
2018-07-04T10:20:04.724Z,31.71
2018-07-04T10:22:44.061Z,32.09
2018-07-04T10:25:23.833Z,31.74
2018-07-04T10:28:03.512Z,31.42
2018-07-04T10:30:43.009Z,31.66
2018-07-04T10:33:22.694Z,31.57
2018-07-04T10:36:02.085Z,31.35
2018-07-04T10:38:41.652Z,31.46
2018-07-04T10:41:21.268Z,31.51
2018-07-04T10:44:00.917Z,31.66
2018-07-04T10:46:40.609Z,31.94
2018-07-04T10:49:20.105Z,32.37
2018-07-04T10:51:59.697Z,32.64
2018-07-04T10:54:39.620Z,32.53
2018-07-04T10:57:19.169Z,32.95
2018-07-04T10:59:58.511Z,33.04
2018-07-04T11:02:37.968Z,33.46
2018-07-04T11:05:17.365Z,33.71
2018-07-04T11:07:57.057Z,33.55
2018-07-04T11:10:36.653Z,33.77
2018-07-04T11:13:16.513Z,33.95
2018-07-04T11:15:55.952Z,33.56
2018-07-04T11:18:35.465Z,33.79
2018-07-04T11:21:15.109Z,33.85
2018-07-04T11:23:54.685Z,33.96
2018-07-04T11:26:34.041Z,34.11
2018-07-04T11:29:13.524Z,34.10
2018-07-04T11:31:52.948Z,34.27
2018-07-04T11:34:32.404Z,34.10
2018-07-04T11:37:12.032Z,34.24
2018-07-04T11:39:51.617Z,34.19
2018-07-04T11:42:31.141Z,34.37
2018-07-04T11:45:10.807Z,34.47
2018-07-04T11:47:37.841Z,34.61
2018-07-04T11:50:04.888Z,34.73
2018-07-04T11:52:31.943Z,34.32
2018-07-04T11:54:59.012Z,33.74
2018-07-04T11:57:26.061Z,33.89
2018-07-04T11:59:53.107Z,33.74
2018-07-04T12:02:20.148Z,33.89
2018-07-04T12:04:59.629Z,34.15
2018-07-04T12:07:26.664Z,34.14
2018-07-04T12:09:53.712Z,34.24
2018-07-04T12:12:20.761Z,34.26
2018-07-04T12:14:47.809Z,34.48
2018-07-04T12:17:14.841Z,34.70
2018-07-04T12:19:41.909Z,34.22
2018-07-04T12:22:08.985Z,34.30
2018-07-04T12:24:36.048Z,34.67
2018-07-04T12:27:03.181Z,34.84
2018-07-04T12:29:30.164Z,35.11
2018-07-04T12:31:57.287Z,34.78
2018-07-04T12:34:24.276Z,35.03
2018-07-04T12:36:51.304Z,35.13
2018-07-04T12:39:18.348Z,34.83
2018-07-04T12:41:45.411Z,33.89
2018-07-04T12:44:12.431Z,33.68
2018-07-04T12:46:39.471Z,33.95
2018-07-04T12:49:06.552Z,34.11
2018-07-04T12:51:34.817Z,34.53
2018-07-04T12:54:07.379Z,34.83
2018-07-04T12:56:46.937Z,34.94
2018-07-04T12:59:26.446Z,35.33
2018-07-04T13:02:05.836Z,34.55
2018-07-04T13:04:45.752Z,34.90
2018-07-04T13:07:25.809Z,34.89
2018-07-04T13:10:05.386Z,34.77
2018-07-04T13:12:44.832Z,34.92
2018-07-04T13:15:24.545Z,34.80
2018-07-04T13:18:04.052Z,35.02
2018-07-04T13:20:43.681Z,35.46
2018-07-04T13:23:23.199Z,35.45
2018-07-04T13:26:02.616Z,35.69
2018-07-04T13:28:42.703Z,35.72
2018-07-04T13:31:22.180Z,35.68
2018-07-04T13:34:01.752Z,35.30
2018-07-04T13:36:41.144Z,35.45
2018-07-04T13:39:20.777Z,35.10
2018-07-04T13:42:00.436Z,35.09
2018-07-04T13:44:40.091Z,35.23
2018-07-04T13:47:19.672Z,35.46
2018-07-04T13:49:59.205Z,35.28
2018-07-04T13:52:38.745Z,35.37
2018-07-04T13:55:18.376Z,34.83
2018-07-04T13:57:58.012Z,34.94
2018-07-04T14:00:37.564Z,35.16
2018-07-04T14:03:17.165Z,35.19
2018-07-04T14:05:56.548Z,35.37
2018-07-04T14:08:36.061Z,35.56
2018-07-04T14:11:15.707Z,34.74
2018-07-04T14:13:55.308Z,34.73
2018-07-04T14:16:35.672Z,34.49
2018-07-04T14:19:15.272Z,34.66
2018-07-04T14:21:54.880Z,34.18
2018-07-04T14:24:34.285Z,34.64
2018-07-04T14:27:13.924Z,34.89
2018-07-04T14:29:53.300Z,34.95
2018-07-04T14:32:32.697Z,35.10
2018-07-04T14:35:12.025Z,35.06
2018-07-04T14:37:51.621Z,35.31
2018-07-04T14:40:31.153Z,34.79
2018-07-04T14:43:10.685Z,34.92
2018-07-04T14:45:50.362Z,34.86
2018-07-04T14:48:29.886Z,34.59
2018-07-04T14:51:09.345Z,34.73
2018-07-04T14:53:48.906Z,34.56
2018-07-04T14:56:28.521Z,34.54
2018-07-04T14:59:08.051Z,34.14
2018-07-04T15:01:47.583Z,34.45
2018-07-04T15:04:27.090Z,34.70
2018-07-04T15:07:06.525Z,35.09
2018-07-04T15:09:46.042Z,35.16
2018-07-04T15:12:25.521Z,35.22
2018-07-04T15:15:05.176Z,34.98
2018-07-04T15:17:44.813Z,34.90
2018-07-04T15:20:24.816Z,35.19
2018-07-04T15:23:04.384Z,35.26
2018-07-04T15:25:44.556Z,35.48
2018-07-04T15:28:24.033Z,35.58
2018-07-04T15:31:03.706Z,35.53
2018-07-04T15:33:43.179Z,35.55
2018-07-04T15:36:22.850Z,35.47
2018-07-04T15:39:02.442Z,35.65
2018-07-04T15:41:41.937Z,35.35
2018-07-04T15:44:21.524Z,34.73
2018-07-04T15:47:01.035Z,34.88
2018-07-04T15:49:40.605Z,35.12
2018-07-04T15:52:20.120Z,35.16
2018-07-04T15:54:59.585Z,35.31
2018-07-04T15:57:39.125Z,35.51
2018-07-04T16:00:18.507Z,35.35
2018-07-04T16:02:58.132Z,35.38
2018-07-04T16:05:37.818Z,35.43
2018-07-04T16:08:17.329Z,35.57
2018-07-04T16:10:57.039Z,35.41
2018-07-04T16:13:36.605Z,35.33
2018-07-04T16:16:16.872Z,35.36
2018-07-04T16:18:56.460Z,35.15
2018-07-04T16:21:36.041Z,35.23
2018-07-04T16:24:16.021Z,35.10
2018-07-04T16:26:55.528Z,35.11
2018-07-04T16:29:34.936Z,35.26
2018-07-04T16:32:14.332Z,35.39
2018-07-04T16:34:54.084Z,35.54
2018-07-04T16:37:33.551Z,35.43
2018-07-04T16:40:13.008Z,35.24
2018-07-04T16:42:52.717Z,35.21
2018-07-04T16:45:32.212Z,34.97
2018-07-04T16:48:12.014Z,34.72
2018-07-04T16:50:51.504Z,34.60
2018-07-04T16:53:31.125Z,34.11
2018-07-04T16:56:10.720Z,34.18
2018-07-04T16:58:50.290Z,34.31
2018-07-04T17:01:29.784Z,34.12
2018-07-04T17:04:09.450Z,34.15
2018-07-04T17:06:49.071Z,34.03
2018-07-04T17:09:28.756Z,33.83
2018-07-04T17:12:08.426Z,33.89
2018-07-04T17:14:47.961Z,34.03
2018-07-04T17:17:27.633Z,33.86
2018-07-04T17:20:07.408Z,34.00
2018-07-04T17:22:46.899Z,33.74
2018-07-04T17:25:26.490Z,33.91
2018-07-04T17:28:06.000Z,33.93
2018-07-04T17:30:45.352Z,34.04
2018-07-04T17:33:24.817Z,33.78
2018-07-04T17:36:04.230Z,33.92
2018-07-04T17:38:43.837Z,33.92
2018-07-04T17:41:23.324Z,33.77
2018-07-04T17:44:02.860Z,32.83
2018-07-04T17:46:42.364Z,32.48
2018-07-04T17:49:21.928Z,32.12
2018-07-04T17:52:02.468Z,31.78
2018-07-04T17:54:41.872Z,31.59
2018-07-04T17:57:21.569Z,31.51
2018-07-04T18:00:01.285Z,31.23
2018-07-04T18:02:40.701Z,31.15
2018-07-04T18:05:20.356Z,30.91
2018-07-04T18:07:59.994Z,30.99
2018-07-04T18:10:39.536Z,30.94
2018-07-04T18:13:19.232Z,30.78
2018-07-04T18:15:58.854Z,30.68
2018-07-04T18:18:38.509Z,30.34
2018-07-04T18:21:25.073Z,30.02
2018-07-04T18:24:05.781Z,29.81
2018-07-04T18:26:45.284Z,29.59
2018-07-04T18:29:24.987Z,29.22
2018-07-04T18:32:05.016Z,29.27
2018-07-04T18:34:44.396Z,28.99
2018-07-04T18:37:24.000Z,28.80
2018-07-04T18:40:03.493Z,28.50
2018-07-04T18:42:42.949Z,28.34
2018-07-04T18:45:22.661Z,28.44
2018-07-04T18:48:02.393Z,28.41
2018-07-04T18:50:42.045Z,28.43
2018-07-04T18:53:21.518Z,28.40
2018-07-04T18:56:01.132Z,28.50
2018-07-04T18:58:40.724Z,28.32
2018-07-04T19:01:20.144Z,28.14
2018-07-04T19:03:59.693Z,28.09
2018-07-04T19:06:39.681Z,28.07
2018-07-04T19:09:19.219Z,27.88
2018-07-04T19:11:58.748Z,27.68
2018-07-04T19:14:38.269Z,27.77
2018-07-04T19:17:17.995Z,27.59
2018-07-04T19:19:57.440Z,27.62
2018-07-04T19:22:36.929Z,27.39
2018-07-04T19:25:16.365Z,27.06
2018-07-04T19:27:55.925Z,27.10
2018-07-04T19:30:35.333Z,26.92
2018-07-04T19:33:15.072Z,26.81
2018-07-04T19:35:54.553Z,26.70
2018-07-04T19:38:34.141Z,26.45
2018-07-04T19:41:13.848Z,26.38
2018-07-04T19:43:53.593Z,26.16
2018-07-04T19:46:33.006Z,26.14
2018-07-04T19:49:12.553Z,26.13
2018-07-04T19:51:52.197Z,25.84
2018-07-04T19:54:31.840Z,25.63
2018-07-04T19:57:11.493Z,25.37
2018-07-04T19:59:50.988Z,25.20
2018-07-04T20:02:30.684Z,25.43
2018-07-04T20:05:10.257Z,24.97
2018-07-04T20:07:49.964Z,24.67
2018-07-04T20:10:29.486Z,24.34
2018-07-04T20:13:09.137Z,24.19
2018-07-04T20:15:48.661Z,24.11
2018-07-04T20:18:28.292Z,24.04
2018-07-04T20:21:07.963Z,24.01
2018-07-04T20:23:47.555Z,23.77
2018-07-04T20:26:26.937Z,23.78
2018-07-04T20:29:06.629Z,23.57
2018-07-04T20:31:46.146Z,23.57
2018-07-04T20:34:25.619Z,23.43
2018-07-04T20:37:05.209Z,23.40
2018-07-04T20:39:44.760Z,23.27
2018-07-04T20:42:24.442Z,23.21
2018-07-04T20:45:03.981Z,23.05
2018-07-04T20:47:43.576Z,23.18
2018-07-04T20:50:23.024Z,23.03
2018-07-04T20:53:02.707Z,23.16
2018-07-04T20:55:42.397Z,22.87
2018-07-04T20:58:21.886Z,22.56
2018-07-04T21:01:01.402Z,22.61
2018-07-04T21:03:40.847Z,22.50
2018-07-04T21:06:20.433Z,22.61
2018-07-04T21:08:59.901Z,22.58
2018-07-04T21:11:39.605Z,22.64
2018-07-04T21:14:19.194Z,22.56
2018-07-04T21:16:58.893Z,22.31
2018-07-04T21:19:38.461Z,22.34
2018-07-04T21:22:17.880Z,22.35
2018-07-04T21:24:57.275Z,22.32
2018-07-04T21:27:36.883Z,22.23
2018-07-04T21:30:16.253Z,22.23
2018-07-04T21:32:55.736Z,22.28
2018-07-04T21:35:35.397Z,22.14
2018-07-04T21:38:14.936Z,22.09
2018-07-04T21:40:54.551Z,22.13
2018-07-04T21:43:34.071Z,21.78
2018-07-04T21:46:13.726Z,21.49
2018-07-04T21:48:53.257Z,21.50
2018-07-04T21:51:32.895Z,21.66
2018-07-04T21:54:12.528Z,21.25
2018-07-04T21:56:52.188Z,21.36
2018-07-04T21:59:32.054Z,21.27
2018-07-04T22:02:11.592Z,21.42
2018-07-04T22:04:51.247Z,21.21
2018-07-04T22:07:30.807Z,21.06
2018-07-04T22:10:10.305Z,20.82
2018-07-04T22:12:49.841Z,20.57
2018-07-04T22:15:29.456Z,20.54
2018-07-04T22:18:09.108Z,20.67
2018-07-04T22:20:48.633Z,20.50
2018-07-04T22:23:28.215Z,20.45
2018-07-04T22:26:07.806Z,20.49
2018-07-04T22:28:47.233Z,20.51
2018-07-04T22:31:26.749Z,20.34
2018-07-04T22:34:06.167Z,20.24
2018-07-04T22:36:45.644Z,20.21
2018-07-04T22:39:25.329Z,20.44
2018-07-04T22:42:04.964Z,20.54
2018-07-04T22:44:44.622Z,20.48
2018-07-04T22:47:24.156Z,20.37
2018-07-04T22:50:03.816Z,20.35
2018-07-04T22:52:43.404Z,20.30
2018-07-04T22:55:23.013Z,20.00
2018-07-04T22:58:02.665Z,20.04
2018-07-04T23:00:42.272Z,20.01
2018-07-04T23:03:21.672Z,19.96
2018-07-04T23:06:01.293Z,19.94
2018-07-04T23:08:41.589Z,19.82
2018-07-04T23:11:21.244Z,19.85
2018-07-04T23:14:00.891Z,19.80
2018-07-04T23:16:40.533Z,19.78
2018-07-04T23:19:20.181Z,19.70
2018-07-04T23:21:59.772Z,19.72
2018-07-04T23:24:39.336Z,19.64
2018-07-04T23:27:18.942Z,19.60
2018-07-04T23:29:58.588Z,19.66
2018-07-04T23:32:37.945Z,19.74
2018-07-04T23:35:17.261Z,19.73
2018-07-04T23:37:57.444Z,19.66
2018-07-04T23:40:37.013Z,19.61
2018-07-04T23:43:16.504Z,19.50
2018-07-04T23:45:56.078Z,19.39
2018-07-04T23:48:35.546Z,19.39
2018-07-04T23:51:15.037Z,19.42
2018-07-04T23:53:54.545Z,19.30
2018-07-04T23:56:33.944Z,19.17
2018-07-04T23:59:13.503Z,19.09
